West Wauregan, Connecticut
Current Conditions -  °F | °C
As of 11:52 PM on Wednesday 17 Dec 2014 (Local Time) from KIJD Reporting Station
Few Clouds Few Clouds  
Wind Chill: 34°   Ceiling: Unl
Heat Index: 38°   Visibility: 10mi
Dew Point: 29°   Wind: 5mph
Humidity: 70%   Direction: NA
Pressure: 29.8"   Gusts: NA
Location:  41.7443°N, 71.9127°W
Report Text: KIJD 180452Z AUTO VRB04KT 10SM FEW080 03/M02 A2980 RMK AO2 SLP091 T00331017 401000033
Loading
Personal Weather Stations






























Interactive Weather Map New forecast layout! Learn more

10-Day Weather Forecast

Advertisements
Track Severe Weather on mobile